Time;durP1;ratioP1;P1;durP2;ratioP2;P2;SDS_P1;SDS_P2;PMS_P1;PMS_P2;Temp;Humidity;BMP_temperature;BMP_pressure;BME280_temperature;BME280_humidity;BME280_pressure;Samples;Min_cycle;Max_cycle;Signal;HPM_P1;HPM_P2
2023/10/09 00:01:39;;;;;;;0.10;0.10;;;;;;;12.07;100.00;99684.53;5113440;28;20186;-58
2023/10/09 00:04:26;;;;;;;0.10;0.10;;;;;;;11.94;100.00;99679.09;5113743;28;20194;-58
2023/10/09 00:07:16;;;;;;;0.10;0.10;;;;;;;12.02;100.00;99672.38;5113548;28;20218;-58
2023/10/09 00:10:12;;;;;;;0.10;0.10;;;;;;;12.13;100.00;99673.53;5113240;28;20648;-58
2023/10/09 00:13:00;;;;;;;0.10;0.10;;;;;;;12.17;100.00;99670.59;5112241;28;20190;-58
2023/10/09 00:15:52;;;;;;;0.10;0.10;;;;;;;12.22;100.00;99672.94;5113640;28;20361;-58
2023/10/09 00:18:39;;;;;;;0.10;0.10;;;;;;;12.24;100.00;99660.41;5113582;28;20187;-58
2023/10/09 00:21:34;;;;;;;0.10;0.10;;;;;;;12.25;100.00;99662.13;5113513;28;20186;-58
2023/10/09 00:24:23;;;;;;;0.10;0.10;;;;;;;12.01;100.00;99654.75;5113379;28;20684;-58
2023/10/09 00:27:12;;;;;;;0.10;0.10;;;;;;;11.95;100.00;99651.59;5113207;28;20217;-58
2023/10/09 00:30:01;;;;;;;0.10;0.10;;;;;;;12.02;100.00;99655.59;5111624;28;20282;-58
2023/10/09 00:32:59;;;;;;;0.10;0.10;;;;;;;12.10;100.00;99653.31;5112362;28;20187;-58
2023/10/09 00:35:54;;;;;;;0.10;0.10;;;;;;;12.20;100.00;99640.31;5113372;28;20271;-58
2023/10/09 00:38:45;;;;;;;0.10;0.10;;;;;;;12.06;100.00;99638.50;5113307;28;20252;-58
2023/10/09 00:41:35;;;;;;;0.10;0.10;;;;;;;12.17;100.00;99632.56;5113211;28;20198;-58
2023/10/09 00:44:22;;;;;;;0.10;0.10;;;;;;;12.15;100.00;99637.09;5111016;28;20190;-58
2023/10/09 00:47:22;;;;;;;0.10;0.10;;;;;;;12.18;100.00;75792.09;5112989;28;20280;-58
2023/10/09 00:50:11;;;;;;;0.10;0.10;;;;;;;12.13;100.00;99633.69;5113338;28;20228;-58
2023/10/09 00:53:03;;;;;;;0.10;0.10;;;;;;;12.07;100.00;99636.75;5113083;28;20570;-58
2023/10/09 00:55:55;;;;;;;0.10;0.10;;;;;;;12.03;100.00;99642.22;5111929;28;20263;-58
2023/10/09 00:58:42;;;;;;;0.10;0.10;;;;;;;12.02;100.00;99640.53;5111766;28;20190;-58
2023/10/09 01:01:34;;;;;;;0.10;0.10;;;;;;;11.87;100.00;99635.28;5113113;28;20186;-58
2023/10/09 01:04:22;;;;;;;0.10;0.10;;;;;;;12.10;100.00;99634.75;5111905;28;20202;-58
2023/10/09 01:07:15;;;;;;;0.10;0.10;;;;;;;11.99;100.00;99637.22;5111874;28;20248;-58
2023/10/09 01:10:10;;;;;;;0.10;0.10;;;;;;;11.90;100.00;99635.13;5112712;28;20230;-58
2023/10/09 01:12:57;;;;;;;0.10;0.10;;;;;;;11.88;100.00;99629.06;5111701;28;20198;-58
2023/10/09 01:15:45;;;;;;;0.10;0.10;;;;;;;11.62;100.00;99623.50;5112982;28;20248;-58
2023/10/09 01:18:37;;;;;;;0.10;0.10;;;;;;;11.58;100.00;99624.66;5111977;28;20300;-58
2023/10/09 01:21:26;;;;;;;0.10;0.10;;;;;;;11.46;100.00;99628.03;5113027;28;20202;-58
2023/10/09 01:24:16;;;;;;;0.10;0.10;;;;;;;11.47;100.00;99630.59;5112925;28;20272;-58
2023/10/09 01:27:05;;;;;;;0.10;0.10;;;;;;;11.47;100.00;99627.94;5112647;28;20335;-58
2023/10/09 01:29:52;;;;;;;0.10;0.10;;;;;;;11.35;100.00;99626.03;5111414;28;20350;-58
2023/10/09 01:32:40;;;;;;;0.00;0.00;;;;;;;11.30;100.00;99628.13;5111856;28;20197;-58
2023/10/09 01:35:27;;;;;;;0.10;0.10;;;;;;;11.28;100.00;99629.97;5111640;28;20260;-58
2023/10/09 01:38:16;;;;;;;0.10;0.10;;;;;;;11.35;100.00;99628.66;5112858;28;20198;-58
2023/10/09 01:41:08;;;;;;;0.10;0.10;;;;;;;11.54;100.00;99624.91;5113594;28;20194;-58
2023/10/09 01:44:00;;;;;;;0.10;0.10;;;;;;;11.45;100.00;99631.63;5114888;28;20361;-58
2023/10/09 01:46:47;;;;;;;0.10;0.10;;;;;;;11.39;100.00;99626.72;5116324;28;20229;-58
2023/10/09 01:49:37;;;;;;;0.10;0.10;;;;;;;11.18;100.00;99627.00;5116285;28;20701;-58
2023/10/09 01:52:24;;;;;;;0.10;0.10;;;;;;;11.17;100.00;99624.47;5116144;28;20273;-58
2023/10/09 01:55:13;;;;;;;0.10;0.10;;;;;;;11.06;100.00;99617.13;5116217;28;20194;-58
2023/10/09 01:58:05;;;;;;;0.10;0.10;;;;;;;11.08;100.00;99609.94;5114851;28;20194;-58
2023/10/09 02:00:55;;;;;;;0.10;0.10;;;;;;;10.96;100.00;99596.56;5115137;28;20198;-58
2023/10/09 02:03:43;;;;;;;0.10;0.10;;;;;;;11.02;100.00;99594.41;5115069;28;20232;-58
2023/10/09 02:06:32;;;;;;;0.10;0.10;;;;;;;11.05;100.00;99590.72;5114596;28;20236;-58
2023/10/09 02:09:23;;;;;;;0.10;0.10;;;;;;;11.13;100.00;99597.28;5114814;28;20740;-58
2023/10/09 02:12:09;;;;;;;0.10;0.10;;;;;;;11.28;100.00;99594.66;5115816;28;20759;-58
2023/10/09 02:14:58;;;;;;;0.10;0.10;;;;;;;11.16;100.00;99593.59;5113474;28;20680;-58
2023/10/09 02:17:52;;;;;;;0.00;0.00;;;;;;;11.12;100.00;99603.53;5115702;28;20209;-58
2023/10/09 02:20:39;;;;;;;0.10;0.10;;;;;;;11.07;100.00;99608.25;5115688;28;20194;-58
2023/10/09 02:23:31;;;;;;;0.10;0.10;;;;;;;11.13;100.00;99602.59;5114416;28;20189;-58
2023/10/09 02:26:25;;;;;;;0.10;0.10;;;;;;;10.97;100.00;99596.47;5115533;28;20264;-58
2023/10/09 02:29:18;;;;;;;0.10;0.10;;;;;;;10.94;100.00;99582.56;5114102;28;20195;-58
2023/10/09 02:32:14;;;;;;;0.10;0.10;;;;;;;10.98;100.00;99586.72;5115443;28;20190;-58
2023/10/09 02:35:10;;;;;;;0.10;0.10;;;;;;;10.98;100.00;99582.28;5115373;28;20199;-58
2023/10/09 02:37:59;;;;;;;0.10;0.10;;;;;;;10.97;100.00;99579.72;5115228;28;20266;-58
2023/10/09 02:43:47;;;;;;;0.10;0.10;;;;;;;11.08;100.00;99569.31;5114099;28;20194;-58
2023/10/09 02:46:34;;;;;;;0.10;0.10;;;;;;;11.17;100.00;99576.72;5115019;28;20190;-58
2023/10/09 02:49:22;;;;;;;0.10;0.10;;;;;;;11.02;100.00;99556.47;5115043;28;20198;-58
2023/10/09 02:52:10;;;;;;;0.10;0.10;;;;;;;10.97;100.00;99550.56;5114810;28;20373;-58
2023/10/09 02:54:59;;;;;;;0.10;0.10;;;;;;;11.19;100.00;99540.38;5113741;28;20268;-58
2023/10/09 02:57:51;;;;;;;0.10;0.10;;;;;;;11.50;100.00;99543.81;5113996;28;20187;-58
2023/10/09 03:00:38;;;;;;;0.10;0.10;;;;;;;11.53;100.00;99539.16;5114922;28;20206;-58
2023/10/09 03:03:25;;;;;;;0.10;0.10;;;;;;;11.52;100.00;99558.69;5113872;28;20197;-58
2023/10/09 03:06:24;;;;;;;0.10;0.10;;;;;;;11.80;100.00;99555.22;5114696;28;20198;-58
2023/10/09 03:09:17;;;;;;;0.10;0.10;;;;;;;11.74;100.00;99568.81;5114377;28;20218;-58
2023/10/09 03:12:06;;;;;;;0.10;0.10;;;;;;;11.76;100.00;99556.31;5114598;28;20198;-58
2023/10/09 03:14:54;;;;;;;0.10;0.10;;;;;;;11.41;100.00;99545.25;5112262;28;20186;-58
2023/10/09 03:17:42;;;;;;;0.10;0.10;;;;;;;11.73;100.00;99537.94;5114333;28;20275;-58
2023/10/09 03:20:30;;;;;;;0.10;0.10;;;;;;;11.46;100.00;99540.50;5114564;28;20193;-58
2023/10/09 03:23:18;;;;;;;0.10;0.10;;;;;;;11.67;100.00;99551.56;5114429;28;20198;-58
2023/10/09 03:26:05;;;;;;;0.10;0.10;;;;;;;11.59;100.00;99535.31;5114249;28;20191;-58
2023/10/09 03:29:09;;;;;;;0.10;0.10;;;;;;;11.54;100.00;99524.09;5112790;28;20213;-58
2023/10/09 03:31:57;;;;;;;0.10;0.10;;;;;;;11.53;100.00;99525.06;5114240;28;20668;-58
2023/10/09 03:34:44;;;;;;;0.10;0.10;;;;;;;11.46;100.00;99536.03;5114222;28;20672;-58
2023/10/09 03:37:34;;;;;;;0.03;0.03;;;;;;;11.74;100.00;99534.31;5114151;28;20210;-58
2023/10/09 03:40:23;;;;;;;0.10;0.10;;;;;;;11.68;100.00;99551.50;5114149;28;20197;-58
2023/10/09 03:43:11;;;;;;;0.10;0.10;;;;;;;11.63;100.00;99555.38;5112768;28;20256;-58
2023/10/09 03:45:59;;;;;;;0.10;0.10;;;;;;;11.63;100.00;99550.06;5112976;28;20217;-58
2023/10/09 03:48:46;;;;;;;0.10;0.10;;;;;;;11.80;100.00;99555.22;5113724;28;20333;-58
2023/10/09 03:51:33;;;;;;;0.10;0.10;;;;;;;11.71;100.00;99547.78;5113921;28;20210;-58
2023/10/09 03:54:22;;;;;;;0.10;0.10;;;;;;;11.70;100.00;99552.25;5113963;28;20194;-58
2023/10/09 03:57:10;;;;;;;0.10;0.10;;;;;;;11.68;100.00;99550.66;5113791;28;20284;-59
2023/10/09 03:59:57;;;;;;;0.10;0.10;;;;;;;11.82;100.00;99549.81;5112515;28;20410;-58
2023/10/09 04:02:44;;;;;;;0.10;0.10;;;;;;;11.78;100.00;99550.94;5113715;28;20186;-58
2023/10/09 04:05:30;;;;;;;0.10;0.10;;;;;;;11.71;100.00;99551.31;5113243;28;20190;-58
2023/10/09 04:08:28;;;;;;;0.10;0.10;;;;;;;11.74;100.00;99555.56;5113508;28;20210;-58
2023/10/09 04:11:22;;;;;;;0.10;0.10;;;;;;;11.74;100.00;99569.69;5113608;28;20193;-58
2023/10/09 04:14:26;;;;;;;0.10;0.10;;;;;;;11.75;100.00;99560.75;5112107;28;20198;-58
2023/10/09 04:17:32;;;;;;;0.10;0.10;;;;;;;11.73;100.00;99586.56;5113710;28;20189;-58
2023/10/09 04:23:34;;;;;;;0.10;0.10;;;;;;;11.85;100.00;99573.50;5097586;28;20201;-58
2023/10/09 04:26:24;;;;;;;0.10;0.10;;;;;;;11.91;100.00;99570.47;5113516;28;20305;-58
2023/10/09 04:29:23;;;;;;;0.00;0.00;;;;;;;11.90;100.00;99566.13;5111921;28;20276;-58
2023/10/09 04:32:15;;;;;;;0.10;0.10;;;;;;;12.07;100.00;99570.38;5113353;28;20210;-58
2023/10/09 04:38:05;;;;;;;0.10;0.10;;;;;;;12.10;100.00;99578.97;5151914;27;21047;-58
2023/10/09 04:40:59;;;;;;;0.10;0.10;;;;;;;12.03;100.00;99582.97;5152100;27;20196;-58
2023/10/09 04:43:44;;;;;;;0.10;0.10;;;;;;;12.06;100.00;99590.72;5150378;27;20246;-59
2023/10/09 04:46:43;;;;;;;0.10;0.10;;;;;;;11.97;100.00;99596.63;5151848;27;20189;-58
2023/10/09 04:49:34;;;;;;;0.10;0.10;;;;;;;11.95;100.00;99598.50;5151690;27;20196;-58
2023/10/09 04:52:51;;;;;;;0.10;0.10;;;;;;;11.79;100.00;99584.47;5151769;27;20192;-58
2023/10/09 04:55:39;;;;;;;0.10;0.10;;;;;;;11.80;100.00;99591.53;5151693;27;20242;-58
2023/10/09 04:58:33;;;;;;;0.10;0.10;;;;;;;11.90;100.00;99592.66;5150297;27;20213;-58
2023/10/09 05:01:35;;;;;;;0.10;0.10;;;;;;;12.02;100.00;99587.41;5151658;27;20640;-58
2023/10/09 05:04:39;;;;;;;0.10;0.10;;;;;;;11.96;100.00;99582.47;5151567;27;20238;-58
2023/10/09 05:07:50;;;;;;;0.10;0.10;;;;;;;11.99;100.00;99592.09;5151601;27;20180;-58
2023/10/09 05:10:32;;;;;;;0.10;0.10;;;;;;;11.87;100.00;99583.09;5151436;27;20185;-58
2023/10/09 05:13:42;;;;;;;0.10;0.10;;;;;;;11.98;100.00;99579.75;5150058;27;20192;-58
2023/10/09 05:16:29;;;;;;;0.10;0.10;;;;;;;11.91;100.00;99581.94;5151175;27;20280;-58
2023/10/09 05:19:33;;;;;;;0.10;0.10;;;;;;;12.00;100.00;99577.84;5151232;27;20193;-58
2023/10/09 05:22:29;;;;;;;0.10;0.10;;;;;;;12.11;100.00;99575.38;5151385;27;20265;-58
2023/10/09 05:25:39;;;;;;;0.10;0.10;;;;;;;12.11;100.00;99570.06;5151233;27;20225;-58
2023/10/09 05:28:25;;;;;;;0.10;0.10;;;;;;;12.20;100.00;99573.94;5149809;27;20185;-58
2023/10/09 05:31:44;;;;;;;0.10;0.10;;;;;;;12.33;100.00;99588.13;5150947;27;20197;-58
2023/10/09 05:34:19;;;;;;;0.10;0.10;;;;;;;12.59;100.00;99589.09;5151122;27;20315;-57
2023/10/09 05:37:16;;;;;;;0.10;0.10;;;;;;;12.56;100.00;99595.47;5150547;27;20225;-58
2023/10/09 05:40:22;;;;;;;0.10;0.10;;;;;;;12.81;100.00;99588.53;5150929;27;20639;-58
2023/10/09 05:43:59;;;;;;;0.10;0.10;;;;;;;12.79;100.00;99588.63;5149468;27;20271;-58
2023/10/09 05:46:16;;;;;;;0.10;0.10;;;;;;;12.64;100.00;99578.16;5150581;27;20201;-58
2023/10/09 05:49:09;;;;;;;0.10;0.10;;;;;;;12.54;100.00;99572.59;5138749;27;20364;-58
2023/10/09 05:52:27;;;;;;;0.10;0.10;;;;;;;12.48;100.00;99570.34;5136766;27;20188;-58
2023/10/09 05:55:48;;;;;;;0.10;0.10;;;;;;;12.64;100.00;99554.22;5136705;27;20193;-58
2023/10/09 06:04:53;;;;;;;0.00;0.00;;;;;;;12.73;100.00;99566.91;5086483;27;20209;-58
2023/10/09 06:08:04;;;;;;;0.10;0.10;;;;;;;12.87;100.00;99577.50;5136663;27;20189;-58
2023/10/09 06:10:47;;;;;;;0.10;0.10;;;;;;;12.66;100.00;99577.13;5136406;27;20197;-58
2023/10/09 06:13:45;;;;;;;0.10;0.10;;;;;;;12.70;100.00;99586.59;5135105;27;20197;-58
2023/10/09 06:16:41;;;;;;;0.10;0.10;;;;;;;-144.59;100.00;117597.06;5136412;27;20202;-58
2023/10/09 06:19:31;;;;;;;0.10;0.10;;;;;;;12.96;100.00;99587.53;5136116;27;20189;-58
2023/10/09 06:22:56;;;;;;;0.10;0.10;;;;;;;12.99;100.00;99591.78;5136299;27;20274;-58
2023/10/09 06:25:39;;;;;;;0.10;0.10;;;;;;;13.02;100.00;99592.41;5136112;27;20281;-58
2023/10/09 06:28:33;;;;;;;0.10;0.10;;;;;;;13.10;100.00;99583.91;5134960;27;20222;-58
2023/10/09 06:31:46;;;;;;;0.10;0.10;;;;;;;12.93;100.00;99585.03;5136143;27;20204;-58
2023/10/09 06:34:39;;;;;;;0.10;0.10;;;;;;;13.11;100.00;99591.78;5136088;27;20193;-58
2023/10/09 06:37:38;;;;;;;0.10;0.10;;;;;;;13.24;100.00;99601.66;5135546;27;20229;-58
2023/10/09 06:43:29;;;;;;;0.10;0.10;;;;;;;13.05;100.00;99594.03;5134552;27;20197;-58
2023/10/09 06:49:33;;;;;;;0.10;0.10;;;;;;;12.97;100.00;99586.56;5135801;27;20197;-58
2023/10/09 06:52:56;;;;;;;0.10;0.10;;;;;;;13.10;100.00;99606.03;5135789;27;20193;-57
2023/10/09 06:55:33;;;;;;;0.10;0.10;;;;;;;13.11;100.00;99614.88;5135245;27;20209;-58
2023/10/09 06:58:26;;;;;;;0.10;0.10;;;;;;;13.17;100.00;99610.00;5133943;27;20225;-57
2023/10/09 07:01:25;;;;;;;0.10;0.10;;;;;;;13.26;100.00;99618.34;5134631;27;20211;-58
2023/10/09 07:04:19;;;;;;;0.10;0.10;;;;;;;-144.59;100.00;99618.34;5135064;27;20189;-58
2023/10/09 07:07:09;;;;;;;0.10;0.10;;;;;;;13.28;100.00;99614.63;5148904;27;20232;-58
2023/10/09 07:13:03;;;;;;;0.10;0.10;;;;;;;13.34;100.00;99624.03;5147635;27;20223;-58
2023/10/09 07:19:09;;;;;;;0.10;0.10;;;;;;;13.77;100.00;99637.03;5134841;27;20778;-58
2023/10/09 07:22:02;;;;;;;0.10;0.10;;;;;;;13.84;100.00;99639.16;5134962;27;20189;-58
2023/10/09 07:24:56;;;;;;;0.10;0.10;;;;;;;-144.59;100.00;99639.16;5135108;27;20270;-58
2023/10/09 07:27:48;;;;;;;0.10;0.10;;;;;;;14.07;100.00;99634.03;5134117;27;20251;-58
2023/10/09 07:30:38;;;;;;;0.10;0.10;;;;;;;14.09;100.00;99634.75;5134984;27;20186;-59
2023/10/09 07:33:50;;;;;;;0.10;0.10;;;;;;;14.08;100.00;99625.91;5134312;27;20189;-58
2023/10/09 07:36:37;;;;;;;0.10;0.10;;;;;;;14.20;100.00;99629.53;5134433;27;20228;-58
2023/10/09 07:39:34;;;;;;;0.10;0.10;;;;;;;14.23;100.00;99635.50;5134782;27;20198;-58
2023/10/09 07:42:26;;;;;;;0.10;0.10;;;;;;;13.93;100.00;99629.69;5134690;27;20721;-58
2023/10/09 07:48:16;;;;;;;0.10;0.10;;;;;;;14.08;100.00;99633.06;5134380;27;20269;-58
2023/10/09 07:51:05;;;;;;;0.10;0.10;;;;;;;13.92;100.00;99631.50;5134480;27;20250;-58
2023/10/09 07:53:56;;;;;;;0.10;0.10;;;;;;;13.92;100.00;99633.31;5134122;27;20196;-58
2023/10/09 07:56:45;;;;;;;0.10;0.10;;;;;;;-144.59;100.00;118019.22;5134409;27;20258;-57
2023/10/09 07:59:32;;;;;;;0.10;0.10;;;;;;;13.95;100.00;99662.38;5132989;27;20398;-58
2023/10/09 08:02:31;;;;;;;0.10;0.10;;;;;;;14.08;100.00;99668.53;5134136;27;20197;-58
2023/10/09 08:05:22;;;;;;;0.10;0.10;;;;;;;14.09;100.00;99672.06;5134418;27;20188;-58
2023/10/09 08:08:39;;;;;;;0.10;0.10;;;;;;;14.24;100.00;99669.16;5134268;27;20189;-58
2023/10/09 08:14:48;;;;;;;0.10;0.10;;;;;;;14.27;100.00;99670.75;5132670;27;20193;-58
2023/10/09 08:17:37;;;;;;;0.07;0.07;;;;;;;14.38;100.00;99657.56;5134055;27;20231;-58
2023/10/09 08:20:26;;;;;;;0.10;0.10;;;;;;;14.47;100.00;99654.22;5134085;27;20205;-58
2023/10/09 08:23:28;;;;;;;0.10;0.10;;;;;;;14.50;100.00;99654.03;5133983;27;20220;-58
2023/10/09 08:26:28;;;;;;;0.10;0.10;;;;;;;14.60;100.00;99648.88;5134038;27;20189;-58
2023/10/09 08:29:17;;;;;;;0.10;0.10;;;;;;;14.54;100.00;99659.97;5132709;27;20356;-58
2023/10/09 08:32:18;;;;;;;0.10;0.10;;;;;;;14.86;100.00;99653.16;5134019;27;20192;-58
2023/10/09 08:35:29;;;;;;;0.10;0.10;;;;;;;14.71;100.00;99645.44;5133862;28;20258;-58
2023/10/09 08:38:23;;;;;;;0.10;0.10;;;;;;;14.86;100.00;99649.63;5092939;28;20219;-58
2023/10/09 08:41:18;;;;;;;0.10;0.10;;;;;;;14.86;100.00;99649.63;5092828;28;20590;-58
2023/10/09 08:44:06;;;;;;;0.10;0.10;;;;;;;14.98;100.00;99659.41;5091613;28;20252;-58
2023/10/09 08:46:55;;;;;;;0.00;0.00;;;;;;;14.89;100.00;99636.91;5092967;28;20199;-58
2023/10/09 08:49:42;;;;;;;0.10;0.10;;;;;;;14.92;100.00;99613.66;5092928;28;20255;-58
2023/10/09 08:52:32;;;;;;;0.10;0.10;;;;;;;14.87;100.00;99604.19;5092867;28;20278;-58
2023/10/09 08:55:19;;;;;;;0.10;0.10;;;;;;;15.11;100.00;99620.16;5092898;28;20206;-58
2023/10/09 08:58:10;;;;;;;0.10;0.10;;;;;;;15.27;100.00;99622.53;5091313;28;20280;-58
2023/10/09 09:00:58;;;;;;;0.10;0.10;;;;;;;15.12;100.00;99624.53;5092796;28;20544;-58
2023/10/09 09:03:45;;;;;;;0.00;0.00;;;;;;;15.51;100.00;99630.47;5092738;28;20190;-58
2023/10/09 09:06:40;;;;;;;0.00;0.00;;;;;;;-144.59;0.00;99626.91;5120702;28;20696;-58
2023/10/09 09:09:31;;;;;;;0.10;0.10;;;;;;;-144.59;100.00;-17798.94;5092790;28;20191;-58
2023/10/09 09:12:18;;;;;;;0.07;0.07;;;;;;;15.53;100.00;99635.69;5092655;28;20194;-58
2023/10/09 09:15:18;;;;;;;0.10;0.10;;;;;;;15.97;100.00;99638.47;5092276;28;20680;-58
2023/10/09 09:18:09;;;;;;;0.10;0.10;;;;;;;16.08;100.00;99636.75;5092500;28;20210;-58
2023/10/09 09:20:56;;;;;;;0.10;0.10;;;;;;;15.88;100.00;99627.66;5092292;28;20223;-58
2023/10/09 09:23:55;;;;;;;0.10;0.10;;;;;;;15.96;100.00;99606.53;5094625;28;20195;-58
2023/10/09 09:26:58;;;;;;;0.10;0.10;;;;;;;16.04;100.00;99614.78;5096541;28;20665;-58
2023/10/09 09:29:52;;;;;;;0.10;0.10;;;;;;;16.04;100.00;99598.75;5095231;28;20231;-58
2023/10/09 09:32:39;;;;;;;0.10;0.10;;;;;;;16.19;100.00;99592.16;5096376;28;20253;-58
2023/10/09 09:35:27;;;;;;;0.03;0.03;;;;;;;15.94;100.00;99584.44;5096011;28;20289;-58
2023/10/09 09:38:17;;;;;;;0.10;0.10;;;;;;;15.75;100.00;99574.34;5096133;28;20215;-58
2023/10/09 09:41:07;;;;;;;0.10;0.10;;;;;;;15.87;100.00;99573.38;5096160;28;20194;-58
2023/10/09 09:43:57;;;;;;;0.10;0.10;;;;;;;15.80;100.00;99601.53;5094663;28;20199;-58
2023/10/09 09:46:45;;;;;;;0.10;0.10;;;;;;;15.79;100.00;99610.53;5096055;28;20312;-58
2023/10/09 09:49:33;;;;;;;0.10;0.10;;;;;;;15.41;100.00;99598.28;5095968;28;20248;-58
2023/10/09 09:52:24;;;;;;;0.10;0.10;;;;;;;15.45;100.00;99607.78;5095940;28;20195;-58
2023/10/09 09:55:18;;;;;;;0.10;0.10;;;;;;;15.45;100.00;128847.50;5095864;28;20207;-58
2023/10/09 09:58:07;;;;;;;0.10;0.10;;;;;;;15.49;100.00;99580.84;5094215;28;20194;-58
2023/10/09 10:01:08;;;;;;;0.10;0.10;;;;;;;15.35;100.00;99649.50;5095815;28;20198;-58
2023/10/09 10:03:59;;;;;;;0.10;0.10;;;;;;;15.44;100.00;99691.50;5095790;28;20202;-58
2023/10/09 10:06:47;;;;;;;0.10;0.10;;;;;;;15.63;100.00;99679.44;5095488;28;20233;-58
2023/10/09 10:09:38;;;;;;;0.10;0.10;;;;;;;-91.25;100.00;69394.16;5095663;28;20586;-58
2023/10/09 10:13:01;;;;;;;0.10;0.10;;;;;;;15.87;100.00;99672.22;5095595;28;20225;-58
2023/10/09 10:16:20;;;;;;;0.10;0.10;;;;;;;16.43;100.00;99666.91;5095472;28;20317;-58
2023/10/09 10:19:22;;;;;;;0.10;0.10;;;;;;;16.44;100.00;99655.22;5095029;28;20292;-58
2023/10/09 10:22:27;;;;;;;0.10;0.10;;;;;;;16.18;100.00;99627.03;5095340;28;20237;-58
2023/10/09 10:25:41;;;;;;;0.10;0.10;;;;;;;16.50;100.00;99619.97;5095263;28;20191;-58
2023/10/09 10:28:42;;;;;;;0.10;0.10;;;;;;;16.53;100.00;99592.97;5094093;28;20257;-58
2023/10/09 10:32:00;;;;;;;0.10;0.10;;;;;;;16.75;100.00;99583.22;5095213;28;20211;-58
2023/10/09 10:34:56;;;;;;;0.10;0.10;;;;;;;16.84;100.00;99553.88;5095052;28;20325;-58
2023/10/09 10:37:50;;;;;;;0.00;0.00;;;;;;;16.87;100.00;99534.03;5131884;27;20299;-58
2023/10/09 10:40:40;;;;;;;0.00;0.00;;;;;;;16.91;100.00;99513.22;5135986;27;20339;-58
2023/10/09 10:43:47;;;;;;;0.10;0.10;;;;;;;16.98;100.00;99499.16;5118952;27;20189;-58
2023/10/09 10:46:42;;;;;;;0.10;0.10;;;;;;;16.65;100.00;99499.31;5135948;27;20181;-58
2023/10/09 10:49:36;;;;;;;0.07;0.07;;;;;;;16.87;100.00;99507.28;5135807;27;20640;-58
2023/10/09 10:52:35;;;;;;;0.10;0.10;;;;;;;16.65;100.00;99507.34;5135726;27;20294;-58
2023/10/09 10:58:35;;;;;;;0.10;0.10;;;;;;;16.32;100.00;99479.78;5134152;27;20186;-58
2023/10/09 11:01:24;;;;;;;0.10;0.10;;;;;;;16.01;100.00;99482.25;5135534;27;20194;-57
2023/10/09 11:04:13;;;;;;;0.10;0.10;;;;;;;16.03;100.00;99492.84;5135469;27;20198;-58
2023/10/09 11:07:09;;;;;;;0.10;0.10;;;;;;;-144.59;100.00;99492.84;5135363;27;20250;-58
2023/10/09 11:10:08;;;;;;;0.10;0.10;;;;;;;16.56;100.00;99495.59;5135369;27;20197;-58
2023/10/09 11:16:14;;;;;;;0.10;0.10;;;;;;;16.66;100.00;99496.50;5135229;27;20236;-58
2023/10/09 11:19:12;;;;;;;0.00;0.00;;;;;;;17.06;100.00;99490.50;5135298;27;20205;-58
2023/10/09 11:25:13;;;;;;;0.10;0.10;;;;;;;17.24;100.00;99485.41;5135068;27;20205;-58
2023/10/09 11:28:15;;;;;;;0.10;0.10;;;;;;;17.58;100.00;99488.69;5133503;27;20214;-58
2023/10/09 11:31:11;;;;;;;0.10;0.10;;;;;;;17.35;100.00;99488.84;5135026;27;20185;-58
2023/10/09 11:33:57;;;;;;;0.10;0.10;;;;;;;17.55;100.00;99481.75;5148209;27;20194;-58
2023/10/09 11:36:48;;;;;;;0.10;0.10;;;;;;;17.51;100.00;99474.97;5134625;27;20217;-58
2023/10/09 11:39:37;;;;;;;0.07;0.07;;;;;;;17.46;100.00;99472.69;5134645;27;20229;-58
2023/10/09 11:42:38;;;;;;;0.10;0.10;;;;;;;17.91;100.00;99474.16;5134775;27;20205;-58
2023/10/09 11:45:28;;;;;;;0.10;0.10;;;;;;;18.18;100.00;99476.19;5134299;27;20671;-59
2023/10/09 11:48:24;;;;;;;0.10;0.10;;;;;;;-118.57;100.00;99476.19;5134632;27;20220;-58
2023/10/09 11:51:18;;;;;;;0.10;0.10;;;;;;;18.21;100.00;99468.69;5134515;27;20262;-59
2023/10/09 11:54:08;;;;;;;0.00;0.00;;;;;;;17.93;100.00;99475.69;5134534;27;20189;-58
2023/10/09 11:56:55;;;;;;;0.10;0.10;;;;;;;17.97;100.00;99476.28;5134526;27;20363;-58
2023/10/09 11:59:43;;;;;;;0.10;0.10;;;;;;;18.15;100.00;99474.63;5133008;27;20571;-58
2023/10/09 12:02:31;;;;;;;0.10;0.10;;;;;;;18.09;100.00;99461.78;5134410;27;20197;-58
2023/10/09 12:05:18;;;;;;;0.00;0.00;;;;;;;18.28;100.00;99461.81;5134428;27;20235;-58
2023/10/09 12:08:08;;;;;;;0.10;0.10;;;;;;;18.75;100.00;99461.13;5134314;27;20196;-59
2023/10/09 12:10:56;;;;;;;0.00;0.00;;;;;;;18.75;100.00;99461.13;5134324;27;20193;-58
2023/10/09 12:13:45;;;;;;;0.10;0.10;;;;;;;19.10;100.00;99449.75;5132798;27;20297;-58
2023/10/09 12:16:32;;;;;;;0.00;0.00;;;;;;;18.91;100.00;99439.06;5134252;27;20213;-58
2023/10/09 12:19:21;;;;;;;0.10;0.10;;;;;;;18.93;100.00;99448.69;5134058;27;20282;-58
2023/10/09 12:22:15;;;;;;;0.10;0.10;;;;;;;18.98;100.00;99441.03;5133917;27;20198;-58
2023/10/09 12:25:09;;;;;;;0.00;0.00;;;;;;;19.09;100.00;99442.69;5133754;27;20190;-58
2023/10/09 12:27:57;;;;;;;0.03;0.03;;;;;;;19.27;100.00;99427.50;5132508;27;20245;-58
2023/10/09 12:30:50;;;;;;;0.10;0.10;;;;;;;18.96;100.00;99440.31;5133900;27;20197;-58
2023/10/09 12:33:39;;;;;;;0.00;0.00;;;;;;;19.24;100.00;99440.41;5133925;27;20189;-58
2023/10/09 12:36:26;;;;;;;0.00;0.00;;;;;;;19.19;100.00;99446.19;5133698;28;20746;-58
2023/10/09 12:39:17;;;;;;;0.10;0.10;;;;;;;19.32;100.00;99445.91;5133836;28;20267;-58
2023/10/09 12:42:07;;;;;;;0.10;0.10;;;;;;;19.24;100.00;99443.09;5133917;28;20243;-58
2023/10/09 12:44:57;;;;;;;0.00;0.00;;;;;;;19.21;100.00;99438.03;5132650;28;20198;-58
2023/10/09 12:47:47;;;;;;;0.10;0.10;;;;;;;19.14;100.00;99429.69;5133892;28;20206;-58
2023/10/09 12:50:41;;;;;;;0.00;0.00;;;;;;;19.36;100.00;99436.53;5133815;28;20185;-58
2023/10/09 12:53:29;;;;;;;0.10;0.10;;;;;;;19.00;100.00;99441.72;5133663;28;20203;-58
2023/10/09 12:56:18;;;;;;;0.10;0.10;;;;;;;19.28;100.00;99445.31;5133535;28;20198;-58
2023/10/09 12:59:07;;;;;;;0.10;0.10;;;;;;;-144.59;100.00;63158.50;5135298;27;20224;-58
2023/10/09 13:01:58;;;;;;;0.10;0.10;;;;;;;19.49;100.00;99447.78;5137765;27;20181;-58
2023/10/09 13:04:47;;;;;;;0.10;0.10;;;;;;;19.54;100.00;99447.34;5137861;27;20267;-58
2023/10/09 13:07:34;;;;;;;0.00;0.00;;;;;;;19.59;100.00;99445.97;5137900;27;20197;-58
2023/10/09 13:10:23;;;;;;;0.10;0.10;;;;;;;19.90;100.00;99442.97;5137531;27;20248;-58
2023/10/09 13:13:11;;;;;;;0.10;0.10;;;;;;;19.99;100.00;99442.91;5136222;27;20201;-58
2023/10/09 13:15:59;;;;;;;0.10;0.10;;;;;;;20.28;100.00;99452.63;5137493;27;20337;-58
2023/10/09 13:18:49;;;;;;;0.00;0.00;;;;;;;20.32;100.00;99443.22;5137433;27;20201;-58
2023/10/09 13:21:39;;;;;;;0.10;0.10;;;;;;;20.54;100.00;99439.25;5137108;27;20208;-58
2023/10/09 13:24:29;;;;;;;0.10;0.10;;;;;;;20.39;100.00;99447.00;5137440;27;20193;-58
2023/10/09 13:27:21;;;;;;;0.10;0.10;;;;;;;20.47;100.00;99441.75;5137330;27;20193;-58
2023/10/09 13:30:21;;;;;;;0.10;0.10;;;;;;;20.42;100.00;99444.00;5137335;27;20238;-58
2023/10/09 13:33:08;;;;;;;0.10;0.10;;;;;;;20.33;100.00;99439.53;5137116;27;20209;-58
2023/10/09 13:35:59;;;;;;;0.10;0.10;;;;;;;20.36;100.00;99449.97;5137082;27;20229;-58
2023/10/09 13:38:47;;;;;;;0.10;0.10;;;;;;;20.24;100.00;99445.84;5137258;27;20189;-58
2023/10/09 13:41:34;;;;;;;0.00;0.00;;;;;;;20.11;100.00;99442.69;5136971;27;20213;-58
2023/10/09 13:44:21;;;;;;;0.10;0.10;;;;;;;20.17;100.00;99444.75;5135779;27;20193;-58
2023/10/09 13:47:18;;;;;;;0.10;0.10;;;;;;;19.93;100.00;99440.81;5137006;27;20194;-58
2023/10/09 13:50:09;;;;;;;0.10;0.10;;;;;;;20.07;100.00;99438.59;5136830;27;20315;-58
2023/10/09 13:52:56;;;;;;;0.10;0.10;;;;;;;19.82;100.00;99438.34;5136809;27;20209;-58
2023/10/09 13:55:44;;;;;;;0.00;0.00;;;;;;;19.92;100.00;99439.13;5136995;27;20214;-58
2023/10/09 13:58:31;;;;;;;0.10;0.10;;;;;;;20.02;100.00;99458.72;5135459;27;20201;-58
2023/10/09 14:01:27;;;;;;;0.10;0.10;;;;;;;20.12;100.00;99455.97;5136515;27;20275;-58
2023/10/09 14:04:18;;;;;;;0.10;0.10;;;;;;;-144.59;19.34;74653.28;5136688;27;20194;-58
2023/10/09 14:07:05;;;;;;;0.10;0.10;;;;;;;20.41;100.00;99463.00;5136662;27;20216;-58